map of PKG home
Great Circle Mapper logo
PKG - Airport
Location
City:  Pulau Pangkor, Malaysia
ICAO / IATA:WMPA / PKG

Details
Type:Airport (Aerodrome, Airfield)
Latitude:414'41"N (4.244722)
Longitude:10033'12"E (100.553333)
Elevation:19 ft (6 m)
Variation:0.19W (WMM2015 magnetic declination)
0.01 annual change
Runways:1
Longest:2598 × 98 ft (792 × 30 m)

Time
Time Zone:UTC+8
Local Time:

Weather
TAF:WMPA 280500Z 2806/0106 08005KT 9999 FEW022 BKN280 PROB30
TEMPO 2808/2812 5000 TSRA FEW017CB SCT018

Related Locations
Nearby:
Farthest:LOH: 12445 mi / 20029 km
Loja (La Toma) [Camilo Ponce Enriquez], Loja, EC

Find:

   beyond  
but within

Other Information
Maps:
NOTAMs:
Links:
Sources:

  
flag of Malaysia   

Sectional Chart

Flight Planning
at skyvector.com

Satellite Image

Google Maps Satellite View

 

Copyright © 2004-2015 Karl L. Swartz. All rights reserved.
The Great Circle Mapper name and logo are trademarks of the Great Circle Mapper.
All other trademarks mentioned herein belong to their respective owners.
Please see credits for attibutions and further copyright information.

  Follow gcmap on Facebook Follow gcmap on Twitter Follow gcmap on Google+

hCard Microformat

Geo Microformat